createdAt,value
2022-12-19T00:00:15.238Z,17.10
2022-12-19T00:01:13.754Z,17.5
2022-12-19T00:02:14.788Z,16.60
2022-12-19T00:03:13.542Z,17.20
2022-12-19T00:04:14.604Z,16.79
2022-12-19T00:05:13.837Z,16.39
2022-12-19T00:06:13.836Z,15.69
2022-12-19T00:07:13.723Z,16.89
2022-12-19T00:08:17.366Z,16
2022-12-19T00:09:14.458Z,16.5
2022-12-19T00:10:13.447Z,17
2022-12-19T00:12:19.045Z,16.10
2022-12-19T00:13:13.468Z,16.89
2022-12-19T00:14:13.483Z,16.60
2022-12-19T00:17:14.023Z,16.70
2022-12-19T00:18:13.451Z,16.29
2022-12-19T00:19:13.634Z,17.5
2022-12-19T00:20:16.600Z,17.10
2022-12-19T00:21:14.388Z,17
2022-12-19T00:22:13.286Z,15.80
2022-12-19T00:23:13.523Z,16.79
2022-12-19T00:24:21.083Z,16.89
2022-12-19T00:25:14.170Z,16.70
2022-12-19T00:26:13.528Z,17
2022-12-19T00:27:13.778Z,17.60
2022-12-19T00:28:13.772Z,17.29
2022-12-19T00:29:14.583Z,16.70
2022-12-19T00:30:14.813Z,17.10
2022-12-19T00:31:13.043Z,17.29
2022-12-19T00:33:13.265Z,16.70
2022-12-19T00:34:13.027Z,16.39
2022-12-19T00:35:13.312Z,17.70
2022-12-19T00:36:13.557Z,17.60
2022-12-19T00:37:13.392Z,17.5
2022-12-19T00:38:13.359Z,17.39
2022-12-19T00:39:13.834Z,16.60
2022-12-19T00:40:14.345Z,17.39
2022-12-19T00:42:13.654Z,17.89
2022-12-19T00:43:14.003Z,16.89
2022-12-19T00:44:13.016Z,18
2022-12-19T00:45:13.148Z,16.70
2022-12-19T00:46:13.231Z,17.39
2022-12-19T00:47:13.743Z,18.20
2022-12-19T00:48:14.149Z,17.20
2022-12-19T00:49:14.232Z,17.60
2022-12-19T00:50:13.658Z,16.5
2022-12-19T00:51:13.657Z,17.60
2022-12-19T00:52:13.946Z,18
2022-12-19T00:53:14.372Z,16.70
2022-12-19T00:54:13.207Z,17.89
2022-12-19T00:55:18.714Z,17.60
2022-12-19T00:56:13.737Z,16.5
2022-12-19T00:57:14.027Z,17.29
2022-12-19T00:58:13.328Z,17.20
2022-12-19T00:59:13.589Z,16.29
2022-12-19T01:00:14.112Z,17.39
2022-12-19T01:02:14.167Z,17.10
2022-12-19T01:03:13.488Z,16.79
2022-12-19T01:04:30.805Z,17.39
2022-12-19T01:05:13.336Z,16.89
2022-12-19T01:07:13.336Z,16.79
2022-12-19T01:08:13.740Z,17.39
2022-12-19T01:09:13.673Z,16.89
2022-12-19T01:10:13.901Z,16.5
2022-12-19T01:11:13.205Z,16.10
2022-12-19T01:12:13.894Z,16.20
2022-12-19T01:14:17.381Z,16.89
2022-12-19T01:15:14.188Z,16.70
2022-12-19T01:17:13.809Z,17.29
2022-12-19T01:18:13.929Z,17
2022-12-19T01:19:14.195Z,16.29
2022-12-19T01:20:13.658Z,16.70
2022-12-19T01:21:14.228Z,16.89
2022-12-19T01:22:13.531Z,15.5
2022-12-19T01:23:13.097Z,15.69
2022-12-19T01:24:13.667Z,16.20
2022-12-19T01:25:14.344Z,16
2022-12-19T01:27:13.419Z,16.70
2022-12-19T01:28:13.707Z,15.5
2022-12-19T01:29:14.026Z,16.20
2022-12-19T01:30:14.328Z,16.29
2022-12-19T01:31:13.879Z,15.80
2022-12-19T01:32:14.107Z,16.79
2022-12-19T01:33:13.544Z,18.29
2022-12-19T01:34:13.846Z,19.20
2022-12-19T01:35:21.141Z,19.89
2022-12-19T01:36:13.217Z,18.5
2022-12-19T01:37:13.325Z,17.79
2022-12-19T01:38:13.193Z,17.10
2022-12-19T01:39:12.809Z,16.60
2022-12-19T01:42:14.061Z,16.29
2022-12-19T01:43:14.558Z,15.89
2022-12-19T01:44:14.091Z,16.29
2022-12-19T01:45:14.065Z,16.10
2022-12-19T01:46:13.320Z,16.29
2022-12-19T01:47:14.150Z,16.10
2022-12-19T01:48:13.217Z,15.10
2022-12-19T01:49:13.138Z,16.60
2022-12-19T01:50:13.773Z,15.89
2022-12-19T01:51:14.156Z,15.69
2022-12-19T01:52:20.775Z,16.10
2022-12-19T01:53:13.630Z,16
2022-12-19T01:54:13.731Z,15.89
2022-12-19T01:55:14.366Z,16
2022-12-19T01:56:13.982Z,16.39
2022-12-19T01:57:13.362Z,15.5
2022-12-19T01:58:13.426Z,16.20
2022-12-19T01:59:13.246Z,15.89
2022-12-19T02:00:14.521Z,16.29
2022-12-19T02:01:14.288Z,16.39
2022-12-19T02:02:13.583Z,15.69
2022-12-19T02:03:13.983Z,16
2022-12-19T02:04:13.795Z,16.20
2022-12-19T02:05:14.333Z,15.60
2022-12-19T02:06:13.484Z,15.69
2022-12-19T02:08:13.874Z,15.89
2022-12-19T02:09:13.461Z,16.29
2022-12-19T02:10:14.067Z,16.60
2022-12-19T02:11:13.571Z,15.39
2022-12-19T02:12:13.886Z,15.5
2022-12-19T02:13:13.976Z,16.20
2022-12-19T02:14:13.308Z,16
2022-12-19T02:15:14.256Z,15
2022-12-19T02:16:13.396Z,15.69
2022-12-19T02:17:14.106Z,14.80
2022-12-19T02:18:13.131Z,15.60
2022-12-19T02:19:13.370Z,16.20
2022-12-19T02:20:18.764Z,15
2022-12-19T02:21:13.998Z,15.10
2022-12-19T02:22:19.158Z,14.60
2022-12-19T02:23:14.200Z,15.5
2022-12-19T02:24:13.580Z,14.5
2022-12-19T02:25:14.022Z,15.39
2022-12-19T02:26:13.056Z,14.80
2022-12-19T02:27:13.632Z,15.60
2022-12-19T02:28:13.730Z,16.39
2022-12-19T02:29:13.192Z,15.19
2022-12-19T02:31:17.554Z,15.39
2022-12-19T02:32:13.310Z,15.80
2022-12-19T02:33:13.799Z,15.19
2022-12-19T02:34:14.061Z,15.5
2022-12-19T02:35:13.695Z,15.80
2022-12-19T02:36:13.458Z,15.60
2022-12-19T02:37:14.019Z,14.80
2022-12-19T02:38:13.521Z,14.89
2022-12-19T02:39:14.050Z,15.39
2022-12-19T02:41:13.777Z,14.89
2022-12-19T02:42:13.676Z,14.60
2022-12-19T02:43:14.038Z,15
2022-12-19T02:44:14.201Z,15.80
2022-12-19T02:45:13.669Z,15.5
2022-12-19T02:46:13.260Z,15.19
2022-12-19T02:47:14.197Z,14.5
2022-12-19T02:48:17.675Z,14.69
2022-12-19T02:49:15.633Z,15.19
2022-12-19T02:50:13.718Z,15.30
2022-12-19T02:52:13.842Z,15.39
2022-12-19T02:53:14.130Z,14.69
2022-12-19T02:54:13.224Z,15.69
2022-12-19T02:55:13.669Z,14.60
2022-12-19T02:56:13.771Z,15.30
2022-12-19T02:59:13.424Z,14.89
2022-12-19T03:00:14.591Z,15.19
2022-12-19T03:01:14.621Z,14.89
2022-12-19T03:03:13.289Z,14.69
2022-12-19T03:04:14.192Z,14.39
2022-12-19T03:05:13.629Z,15.30
2022-12-19T03:06:13.647Z,14.30
2022-12-19T03:07:13.791Z,14.5
2022-12-19T03:08:12.998Z,14.19
2022-12-19T03:09:13.357Z,13.69
2022-12-19T03:10:13.829Z,13.39
2022-12-19T03:11:13.919Z,14.60
2022-12-19T03:12:17.264Z,14.10
2022-12-19T03:13:13.954Z,15
2022-12-19T03:14:14.113Z,14.60
2022-12-19T03:15:13.617Z,14.5
2022-12-19T03:16:13.664Z,14.10
2022-12-19T03:18:13.696Z,14.19
2022-12-19T03:19:13.873Z,14.30
2022-12-19T03:21:14.179Z,13.89
2022-12-19T03:22:13.502Z,14.80
2022-12-19T03:23:13.367Z,13.89
2022-12-19T03:24:13.570Z,14.30
2022-12-19T03:25:14.003Z,14.80
2022-12-19T03:26:13.328Z,14.30
2022-12-19T03:28:13.025Z,13.89
2022-12-19T03:29:13.388Z,13.60
2022-12-19T03:30:13.672Z,14.80
2022-12-19T03:31:13.828Z,13.80
2022-12-19T03:32:13.312Z,14
2022-12-19T03:33:13.573Z,13.69
2022-12-19T03:34:13.932Z,13.5
2022-12-19T03:35:13.186Z,13.69
2022-12-19T03:36:13.538Z,14.19
2022-12-19T03:37:14.018Z,13.60
2022-12-19T03:38:13.260Z,13.69
2022-12-19T03:39:13.576Z,13.80
2022-12-19T03:40:13.840Z,13.19
2022-12-19T03:41:14.184Z,13.89
2022-12-19T03:42:13.244Z,13.80
2022-12-19T03:43:13.743Z,13.69
2022-12-19T03:44:13.458Z,13.30
2022-12-19T03:45:13.992Z,14.39
2022-12-19T03:46:13.038Z,13.5
2022-12-19T03:47:13.493Z,13.89
2022-12-19T03:48:13.587Z,13.39
2022-12-19T03:50:14.231Z,13.19
2022-12-19T03:51:13.883Z,13.69
2022-12-19T03:53:13.388Z,13.30
2022-12-19T03:54:13.636Z,12.89
2022-12-19T03:55:13.200Z,13.19
2022-12-19T03:56:13.562Z,13.10
2022-12-19T03:57:13.850Z,13.30
2022-12-19T03:58:14.104Z,13.5
2022-12-19T03:59:13.299Z,13.60
2022-12-19T04:00:14.253Z,13.30
2022-12-19T04:01:13.917Z,13.69
2022-12-19T04:03:14.232Z,13.5
2022-12-19T04:04:13.661Z,13.60
2022-12-19T04:05:14.082Z,13.19
2022-12-19T04:06:13.397Z,12.89
2022-12-19T04:07:13.976Z,12.69
2022-12-19T04:08:14.219Z,13.10
2022-12-19T04:09:17.948Z,13.5
2022-12-19T04:10:14.305Z,13.30
2022-12-19T04:11:13.642Z,12.80
2022-12-19T04:12:14.152Z,13.19
2022-12-19T04:13:13.230Z,13.80
2022-12-19T04:14:13.271Z,13.89
2022-12-19T04:15:13.817Z,12.60
2022-12-19T04:16:14.310Z,12.30
2022-12-19T04:17:13.448Z,13.60
2022-12-19T04:18:14.184Z,12.80
2022-12-19T04:19:13.327Z,13.30
2022-12-19T04:20:14.023Z,13
2022-12-19T04:21:13.535Z,13.19
2022-12-19T04:22:13.964Z,13.10
2022-12-19T04:23:12.936Z,13.39
2022-12-19T04:24:13.430Z,13.10
2022-12-19T04:25:14.290Z,12.89
2022-12-19T04:26:13.419Z,13.39
2022-12-19T04:27:13.838Z,13
2022-12-19T04:28:13.105Z,13.19
2022-12-19T04:29:13.176Z,13.30
2022-12-19T04:30:13.780Z,12.89
2022-12-19T04:31:14.017Z,12.5
2022-12-19T04:32:13.217Z,13.30
2022-12-19T04:33:13.223Z,12.60
2022-12-19T04:34:13.453Z,13.30
2022-12-19T04:35:14.153Z,12.69
2022-12-19T04:36:13.333Z,13.10
2022-12-19T04:37:13.845Z,12.69
2022-12-19T04:38:14.176Z,12.39
2022-12-19T04:39:13.306Z,11.89
2022-12-19T04:40:13.420Z,12.5
2022-12-19T04:41:13.938Z,12.19
2022-12-19T04:42:13.400Z,12
2022-12-19T04:43:13.418Z,11.69
2022-12-19T04:44:13.852Z,12.10
2022-12-19T04:45:13.632Z,11.10
2022-12-19T04:46:14.073Z,11.60
2022-12-19T04:47:13.875Z,11.10
2022-12-19T04:48:13.974Z,10.89
2022-12-19T04:49:13.315Z,11
2022-12-19T04:50:13.654Z,10.60
2022-12-19T04:51:14.059Z,10.10
2022-12-19T04:52:14.091Z,9.800
2022-12-19T04:53:13.770Z,9.600
2022-12-19T04:54:13.816Z,9.800
2022-12-19T04:55:14.393Z,9.699
2022-12-19T04:56:13.555Z,9.899
2022-12-19T04:57:21.829Z,9.199
2022-12-19T04:58:17.636Z,8.600
2022-12-19T05:00:14.623Z,9
2022-12-19T05:01:14.445Z,8.899
2022-12-19T05:02:14.322Z,8.800
2022-12-19T05:03:21.874Z,8.699
2022-12-19T05:04:14.221Z,8.600
2022-12-19T05:06:13.607Z,8.699
2022-12-19T05:07:14.052Z,8.5
2022-12-19T05:08:13.194Z,9.199
2022-12-19T05:09:13.646Z,8.399
2022-12-19T05:10:14.421Z,9.100
2022-12-19T05:11:19.198Z,9.600
2022-12-19T05:13:14.090Z,8.800
2022-12-19T05:14:13.469Z,9.100
2022-12-19T05:15:27.937Z,9.5
2022-12-19T05:16:13.300Z,8.899
2022-12-19T05:17:14.034Z,9.5
2022-12-19T05:18:14.011Z,9.399
2022-12-19T05:19:14.676Z,8.800
2022-12-19T05:21:13.366Z,9.600
2022-12-19T05:22:13.586Z,9
2022-12-19T05:23:17.898Z,8.5
2022-12-19T05:24:13.424Z,8.699
2022-12-19T05:26:13.874Z,9
2022-12-19T05:27:14.168Z,9.100
2022-12-19T05:28:13.352Z,8.899
2022-12-19T05:30:14.177Z,9.199
2022-12-19T05:31:13.206Z,9.899
2022-12-19T05:32:13.828Z,9.100
2022-12-19T05:33:13.100Z,8.899
2022-12-19T05:34:14.083Z,9.5
2022-12-19T05:35:13.704Z,9.199
2022-12-19T05:37:13.227Z,9.699
2022-12-19T05:38:13.502Z,9.100
2022-12-19T05:39:13.176Z,9.300
2022-12-19T05:40:13.481Z,9.5
2022-12-19T05:41:13.773Z,9.600
2022-12-19T05:42:14.033Z,9.899
2022-12-19T05:43:13.400Z,9.600
2022-12-19T05:44:14.072Z,9.899
2022-12-19T05:45:13.222Z,9.699
2022-12-19T05:46:13.350Z,9.100
2022-12-19T05:47:13.562Z,9.800
2022-12-19T05:48:13.974Z,9.5
2022-12-19T05:49:13.055Z,9.399
2022-12-19T05:50:14.194Z,9.800
2022-12-19T05:51:13.418Z,9.600
2022-12-19T05:52:13.498Z,9.300
2022-12-19T05:53:14.232Z,9
2022-12-19T05:54:13.940Z,9.300
2022-12-19T05:55:14.480Z,8.699
2022-12-19T05:56:13.707Z,8.600
2022-12-19T05:57:13.655Z,8.399
2022-12-19T05:58:13.466Z,8.199
2022-12-19T05:59:13.852Z,8.300
2022-12-19T06:01:14.716Z,8
2022-12-19T06:02:13.861Z,7.699
2022-12-19T06:04:14.626Z,7.800
2022-12-19T06:05:15.170Z,7.300
2022-12-19T06:06:14.324Z,7.5
2022-12-19T06:07:19.328Z,7.900
2022-12-19T06:08:13.926Z,7.699
2022-12-19T06:09:14.456Z,7.300
2022-12-19T06:11:13.480Z,7.599
2022-12-19T06:12:13.660Z,7.699
2022-12-19T06:13:13.663Z,7.199
2022-12-19T06:14:13.316Z,7.400
2022-12-19T06:16:14.250Z,7.599
2022-12-19T06:17:14.701Z,7.800
2022-12-19T06:18:13.465Z,8
2022-12-19T06:19:14.331Z,7.699
2022-12-19T06:20:14.037Z,7.400
2022-12-19T06:21:13.944Z,7.5
2022-12-19T06:22:13.608Z,7.900
2022-12-19T06:23:13.950Z,7.699
2022-12-19T06:24:13.651Z,7.900
2022-12-19T06:25:13.812Z,8
2022-12-19T06:26:19.130Z,7.5
2022-12-19T06:27:14.020Z,8
2022-12-19T06:28:13.915Z,8.100
2022-12-19T06:29:13.313Z,8
2022-12-19T06:30:14.084Z,7.599
2022-12-19T06:31:13.961Z,7.800
2022-12-19T06:32:13.466Z,7.900
2022-12-19T06:33:13.942Z,7.599
2022-12-19T06:34:32.981Z,7.5
2022-12-19T06:35:14.394Z,7.599
2022-12-19T06:36:13.941Z,7.800
2022-12-19T06:37:13.735Z,7.5
2022-12-19T06:38:14.307Z,7.800
2022-12-19T06:39:13.925Z,7.199
2022-12-19T06:40:13.691Z,7.400
2022-12-19T06:41:13.556Z,7.300
2022-12-19T06:43:14.580Z,7.199
2022-12-19T06:44:14.155Z,7.800
2022-12-19T06:45:13.999Z,7.699
2022-12-19T06:46:13.469Z,7.5
2022-12-19T06:47:14.039Z,7.300
2022-12-19T06:48:13.777Z,7.599
2022-12-19T06:49:14.205Z,7.699
2022-12-19T06:50:14.324Z,8.100
2022-12-19T06:51:14.074Z,7
2022-12-19T06:52:13.233Z,7.5
2022-12-19T06:53:14.011Z,8.199
2022-12-19T06:54:13.957Z,8.100
2022-12-19T06:55:13.857Z,7.699
2022-12-19T06:56:12.996Z,7.800
2022-12-19T06:57:14.269Z,7.599
2022-12-19T06:58:13.779Z,7.800
2022-12-19T06:59:13.922Z,7.5
2022-12-19T07:00:14.692Z,8.100
2022-12-19T07:01:13.711Z,7.599
2022-12-19T07:02:14.334Z,7.800
2022-12-19T07:03:14.937Z,7.300
2022-12-19T07:04:14.824Z,7.599
2022-12-19T07:05:13.945Z,7.300
2022-12-19T07:06:14.034Z,7.599
2022-12-19T07:07:14.274Z,7.5
2022-12-19T07:08:14.726Z,7.900
2022-12-19T07:09:13.963Z,7
2022-12-19T07:11:14.017Z,7.599
2022-12-19T07:12:19.181Z,7.400
2022-12-19T07:13:14.623Z,7.599
2022-12-19T07:14:13.902Z,7.5
2022-12-19T07:15:13.833Z,7
2022-12-19T07:18:14.092Z,6.800
2022-12-19T07:19:14.164Z,7.099
2022-12-19T07:20:19.622Z,7
2022-12-19T07:21:13.750Z,7.400
2022-12-19T07:22:21.873Z,7
2022-12-19T07:23:13.645Z,7.400
2022-12-19T07:24:14.625Z,6.900
2022-12-19T07:25:14.729Z,6.800
2022-12-19T07:26:13.473Z,6.900
2022-12-19T07:27:14.390Z,7.199
2022-12-19T07:28:21.965Z,7
2022-12-19T07:29:13.482Z,7.300
2022-12-19T07:30:14.715Z,6.900
2022-12-19T07:32:13.587Z,6.699
2022-12-19T07:33:19.692Z,6.800
2022-12-19T07:34:13.576Z,7.099
2022-12-19T07:35:14.661Z,6.900
2022-12-19T07:36:14.294Z,7
2022-12-19T07:37:13.981Z,6.699
2022-12-19T07:38:13.516Z,6.599
2022-12-19T07:39:14.101Z,6.800
2022-12-19T07:41:13.855Z,6.900
2022-12-19T07:43:14.233Z,6
2022-12-19T07:44:13.948Z,6.5
2022-12-19T07:45:14.089Z,6
2022-12-19T07:47:13.597Z,6.599
2022-12-19T07:48:14.779Z,6.199
2022-12-19T07:49:18.225Z,5.900
2022-12-19T07:50:14.712Z,6.5
2022-12-19T07:51:13.919Z,6.199
2022-12-19T07:52:13.633Z,6.599
2022-12-19T07:53:13.603Z,6.400
2022-12-19T07:54:14.406Z,7.099
2022-12-19T07:55:14.343Z,6.5
2022-12-19T07:56:14.047Z,7.199
2022-12-19T07:57:13.867Z,6.900
2022-12-19T07:58:13.229Z,7
2022-12-19T07:59:14.484Z,7.199
2022-12-19T08:00:15.019Z,7.400
2022-12-19T08:01:14.126Z,7.300
2022-12-19T08:02:14.377Z,7
2022-12-19T08:03:14.643Z,7.099
2022-12-19T08:04:13.899Z,6.699
2022-12-19T08:06:14.613Z,6.599
2022-12-19T08:07:14.885Z,6.699
2022-12-19T08:08:13.535Z,6.400
2022-12-19T08:09:14.510Z,6.5
2022-12-19T08:10:14.280Z,6.800
2022-12-19T08:11:14.433Z,6.599
2022-12-19T08:12:14.727Z,7
2022-12-19T08:13:13.887Z,6.699
2022-12-19T08:14:14.212Z,6.900
2022-12-19T08:15:15.077Z,6.300
2022-12-19T08:16:14.251Z,6.5
2022-12-19T08:17:21.573Z,7.099
2022-12-19T08:18:13.615Z,6.300
2022-12-19T08:19:14.140Z,6.400
2022-12-19T08:21:14.503Z,6.800
2022-12-19T08:22:13.718Z,6.400
2022-12-19T08:23:13.754Z,6.5
2022-12-19T08:25:13.815Z,6.699
2022-12-19T08:26:14.236Z,6.599
2022-12-19T08:27:14.378Z,6.699
2022-12-19T08:28:14.562Z,7.099
2022-12-19T08:29:14.436Z,7
2022-12-19T08:30:14.884Z,6.599
2022-12-19T08:31:13.731Z,7.699
2022-12-19T08:32:20.225Z,6.699
2022-12-19T08:34:13.603Z,6.5
2022-12-19T08:35:14.136Z,6.699
2022-12-19T08:36:14.321Z,7.099
2022-12-19T08:37:15.305Z,7
2022-12-19T08:38:15.534Z,6.800
2022-12-19T08:39:14.846Z,7.199
2022-12-19T08:40:15.053Z,7.300
2022-12-19T08:41:15.213Z,7.099
2022-12-19T08:42:14.048Z,7.300
2022-12-19T08:43:14.952Z,6.5
2022-12-19T08:44:15.357Z,7.099
2022-12-19T08:45:14.979Z,6.800
2022-12-19T08:47:14.916Z,6.300
2022-12-19T08:48:15.046Z,6.800
2022-12-19T08:51:13.967Z,6.5
2022-12-19T08:52:14.301Z,6.900
2022-12-19T08:53:14.396Z,6.599
2022-12-19T08:54:14.438Z,6.5
2022-12-19T08:55:13.840Z,6.599
2022-12-19T08:56:13.600Z,6.300
2022-12-19T08:57:13.826Z,6.199
2022-12-19T08:58:14.318Z,6.400
2022-12-19T08:59:15.886Z,6.099
2022-12-19T09:00:15.295Z,6.400
2022-12-19T09:01:14.792Z,6.300
2022-12-19T09:02:13.742Z,5.800
2022-12-19T09:03:13.855Z,5.900
2022-12-19T09:06:02.335Z,6.199
2022-12-19T09:06:05.259Z,5.5
2022-12-19T09:06:25.560Z,5.800
2022-12-19T09:07:15.243Z,5.900
2022-12-19T09:08:13.535Z,6.300
2022-12-19T09:09:14.877Z,6
2022-12-19T09:10:13.973Z,6.099
2022-12-19T09:11:14.515Z,5.900
2022-12-19T09:12:14.516Z,6
2022-12-19T09:13:14.365Z,5.900
2022-12-19T09:14:14.524Z,5.400
2022-12-19T09:15:13.873Z,5.800
2022-12-19T09:16:13.867Z,6.099
2022-12-19T09:17:14.148Z,5.800
2022-12-19T09:18:14.446Z,5.900
2022-12-19T09:19:13.924Z,6.300
2022-12-19T09:20:19.639Z,6
2022-12-19T09:22:14.116Z,5.699
2022-12-19T09:23:14.534Z,6.099
2022-12-19T09:24:13.744Z,5.900
2022-12-19T09:26:13.845Z,5.5
2022-12-19T09:27:14.638Z,5.699
2022-12-19T09:28:27.860Z,6.099
2022-12-19T09:29:21.015Z,5.599
2022-12-19T09:30:15.084Z,5.900
2022-12-19T09:31:14.417Z,5.5
2022-12-19T09:32:13.728Z,5.300
2022-12-19T09:33:13.941Z,5.699
2022-12-19T09:34:14.395Z,5.5
2022-12-19T09:35:14.794Z,5.199
2022-12-19T09:36:13.642Z,5.699
2022-12-19T09:37:16.646Z,5
2022-12-19T09:38:14.684Z,5.699
2022-12-19T09:39:20.058Z,5.400
2022-12-19T09:40:14.083Z,5.699
2022-12-19T09:41:19.352Z,5.400
2022-12-19T09:42:14.443Z,5.599
2022-12-19T09:43:14.780Z,5.400
2022-12-19T09:44:14.281Z,4.900
2022-12-19T09:45:25.911Z,5.599
2022-12-19T09:46:14.495Z,5.099
2022-12-19T09:47:14.885Z,5.300
2022-12-19T09:48:23.593Z,5.400
2022-12-19T09:50:14.145Z,5.5
2022-12-19T09:51:13.652Z,5.599
2022-12-19T09:54:13.496Z,5.300
2022-12-19T09:55:16.853Z,5.800
2022-12-19T09:56:14.601Z,5.5
2022-12-19T09:57:14.309Z,5.199
2022-12-19T09:59:14.073Z,5.599
2022-12-19T10:00:14.621Z,5.5
2022-12-19T10:01:14.689Z,5.300
2022-12-19T10:02:14.633Z,5.400
2022-12-19T10:03:14.496Z,5.099
2022-12-19T10:04:14.059Z,5
2022-12-19T10:06:58.113Z,5.099
2022-12-19T10:07:35.394Z,5.199
2022-12-19T10:08:14.334Z,4.900
2022-12-19T10:10:08.521Z,5.400
2022-12-19T10:12:16.946Z,5
2022-12-19T10:12:43.379Z,4.800
2022-12-19T10:12:45.698Z,5.099
2022-12-19T10:13:16.560Z,5.199
2022-12-19T10:14:13.828Z,5.300
2022-12-19T10:15:16.032Z,5.5
2022-12-19T10:16:14.526Z,5.199
2022-12-19T10:18:16.032Z,5.5
2022-12-19T10:19:15.281Z,5.099
2022-12-19T10:21:15.453Z,4.900
2022-12-19T10:22:18.938Z,5.400
2022-12-19T10:23:14.472Z,5.099
2022-12-19T10:25:14.822Z,5.199
2022-12-19T10:26:14.822Z,5
2022-12-19T10:27:14.975Z,5.300
2022-12-19T10:28:14.613Z,5
2022-12-19T10:29:14.496Z,5.199
2022-12-19T10:30:14.495Z,5.5
2022-12-19T10:31:20.663Z,4.900
2022-12-19T10:32:14.542Z,5.300
2022-12-19T10:33:20.198Z,5.800
2022-12-19T10:34:15.380Z,5.699
2022-12-19T10:35:14.173Z,5.400
2022-12-19T10:36:13.993Z,5.300
2022-12-19T10:37:26.588Z,5
2022-12-19T10:38:14.072Z,5.599
2022-12-19T10:39:15.344Z,5.300
2022-12-19T10:40:27.189Z,5.199
2022-12-19T10:41:14.828Z,5.300
2022-12-19T10:43:19.129Z,5.400
2022-12-19T10:44:13.518Z,5
2022-12-19T10:45:14.924Z,5.199
2022-12-19T10:46:13.755Z,5.5
2022-12-19T10:47:13.852Z,5.099
2022-12-19T10:49:13.929Z,5
2022-12-19T10:50:14.317Z,5.300
2022-12-19T10:51:14.325Z,5.099
2022-12-19T10:52:14.213Z,5.300
2022-12-19T10:53:13.794Z,5
2022-12-19T10:54:13.718Z,5.300
2022-12-19T10:55:13.615Z,5
2022-12-19T10:56:13.780Z,4.900
2022-12-19T10:57:14.226Z,5.5
2022-12-19T10:58:13.849Z,4.900
2022-12-19T11:00:14.543Z,5.199
2022-12-19T11:01:13.838Z,4.900
2022-12-19T11:02:14.203Z,4.800
2022-12-19T11:03:16.786Z,4.599
2022-12-19T11:04:15.197Z,5
2022-12-19T11:06:13.788Z,5.300
2022-12-19T11:07:13.713Z,4.900
2022-12-19T11:08:13.979Z,5
2022-12-19T11:11:26.141Z,4.800
2022-12-19T11:14:23.314Z,5.199
2022-12-19T11:16:38.264Z,5.099
2022-12-19T11:18:51.171Z,4.900
2022-12-19T11:19:15.754Z,4.699
2022-12-19T11:19:45.189Z,5.300
2022-12-19T11:21:58.855Z,4.800
2022-12-19T11:29:19.697Z,4.800
2022-12-19T11:29:30.743Z,4.599
2022-12-19T11:29:32.146Z,4.400
2022-12-19T11:29:34.683Z,5.199
2022-12-19T11:29:37.561Z,4.599
2022-12-19T11:29:37.685Z,4.199
2022-12-19T11:29:38.399Z,4.400
2022-12-19T11:29:40.286Z,4.5
2022-12-19T11:30:34.368Z,4.900
2022-12-19T11:30:47.444Z,4.699
2022-12-19T11:31:53.012Z,4.699
2022-12-19T11:32:31.547Z,4.400
2022-12-19T11:32:40.284Z,4.699
2022-12-19T11:33:13.719Z,4.400
2022-12-19T11:34:14.199Z,4.599
2022-12-19T11:35:14.369Z,4.5
2022-12-19T11:36:13.901Z,4.199
2022-12-19T11:37:14.039Z,4.400
2022-12-19T11:39:14.596Z,4.099
2022-12-19T11:40:14.205Z,4.400
2022-12-19T11:41:14.582Z,4.300
2022-12-19T11:42:13.520Z,3.900
2022-12-19T11:43:42.427Z,4.199
2022-12-19T11:44:14.504Z,4.099
2022-12-19T11:45:14.424Z,4.199
2022-12-19T11:46:19.427Z,4
2022-12-19T11:47:13.847Z,4.199
2022-12-19T11:48:13.781Z,4.300
2022-12-19T11:49:14.151Z,4
2022-12-19T11:50:14.654Z,3.900
2022-12-19T11:51:14.656Z,4.099
2022-12-19T11:53:18.890Z,3.599
2022-12-19T11:54:14.616Z,3.900
2022-12-19T11:55:15.120Z,4.099
2022-12-19T11:56:16.565Z,4
2022-12-19T11:58:13.519Z,4.099
2022-12-19T12:00:14.417Z,4.300
2022-12-19T12:01:14.089Z,4.099
2022-12-19T12:02:14.870Z,3.900
2022-12-19T12:03:14.260Z,4.099
2022-12-19T12:04:14.033Z,4.199
2022-12-19T12:05:14.907Z,4
2022-12-19T12:06:13.748Z,3.5
2022-12-19T12:07:39.276Z,3.900
2022-12-19T12:10:17.850Z,3.799
2022-12-19T12:14:53.218Z,3.900
2022-12-19T12:17:01.883Z,4
2022-12-19T12:20:43.332Z,3.799
2022-12-19T12:20:51.585Z,4
2022-12-19T12:22:47.328Z,3.599
2022-12-19T12:25:11.488Z,3.900
2022-12-19T12:26:25.935Z,3.799
2022-12-19T12:31:05.688Z,4.099
2022-12-19T12:31:12.321Z,4
2022-12-19T12:31:18.580Z,3.599
2022-12-19T12:31:27.719Z,3.799
2022-12-19T12:31:41.610Z,3.799
2022-12-19T12:31:44.252Z,3.599
2022-12-19T12:31:48.338Z,3.5
2022-12-19T12:31:51.725Z,3.599
2022-12-19T12:32:02.058Z,3.5
2022-12-19T12:32:05.580Z,3.099
2022-12-19T12:35:40.782Z,3.599
2022-12-19T12:35:56.945Z,3.400
2022-12-19T12:37:47.868Z,3.799
2022-12-19T12:37:54.133Z,3.400
2022-12-19T12:38:30.401Z,3.799
2022-12-19T12:39:18.327Z,3.400
2022-12-19T12:40:14.105Z,3.299
2022-12-19T12:41:13.731Z,3.599
2022-12-19T12:42:13.519Z,3.299
2022-12-19T12:43:14.796Z,3.200
2022-12-19T12:44:14.131Z,3.5
2022-12-19T12:45:14.561Z,3.299
2022-12-19T12:46:14.420Z,3
2022-12-19T12:47:14.088Z,3.299
2022-12-19T12:50:14.206Z,3.5
2022-12-19T12:52:14.176Z,3.299
2022-12-19T12:53:14.169Z,3.400
2022-12-19T12:54:14.029Z,3.299
2022-12-19T12:55:14.161Z,3.200
2022-12-19T12:56:14.193Z,3.099
2022-12-19T12:59:14.834Z,3.299
2022-12-19T13:00:14.938Z,3.200
2022-12-19T13:01:14.619Z,3.400
2022-12-19T13:02:14.366Z,3.099
2022-12-19T13:03:14.431Z,3
2022-12-19T13:04:14.657Z,3.400
2022-12-19T13:05:14.220Z,3.299
2022-12-19T13:06:14.638Z,3.099
2022-12-19T13:07:13.916Z,3.200
2022-12-19T13:08:13.899Z,3.299
2022-12-19T13:09:14.297Z,3
2022-12-19T13:10:14.675Z,3.200
2022-12-19T13:11:13.890Z,3
2022-12-19T13:12:14.113Z,2.900
2022-12-19T13:13:15.806Z,3
2022-12-19T13:14:14.627Z,3.400
2022-12-19T13:15:13.815Z,3.200
2022-12-19T13:16:13.903Z,2.799
2022-12-19T13:17:14.370Z,3.099
2022-12-19T13:18:14.322Z,2.900
2022-12-19T13:19:19.686Z,3
2022-12-19T13:20:14.243Z,2.900
2022-12-19T13:21:15.140Z,3.099
2022-12-19T13:22:14.021Z,3
2022-12-19T13:23:13.977Z,2.599
2022-12-19T13:24:16.346Z,2.900
2022-12-19T13:25:14.889Z,2.799
2022-12-19T13:27:13.780Z,2.700
2022-12-19T13:28:13.756Z,2.599
2022-12-19T13:29:13.976Z,2.799
2022-12-19T13:30:14.403Z,2.900
2022-12-19T13:31:21.275Z,2.799
2022-12-19T13:32:13.859Z,2.900
2022-12-19T13:33:13.993Z,2.799
2022-12-19T13:34:14.094Z,3
2022-12-19T13:37:58.785Z,2.900
2022-12-19T13:39:47.686Z,2.799
2022-12-19T13:39:51.037Z,2.700
2022-12-19T13:39:56.271Z,2.5
2022-12-19T13:40:56.816Z,2.900
2022-12-19T13:41:16.893Z,2.599
2022-12-19T13:42:13.895Z,2.799
2022-12-19T13:43:14.677Z,3.099
2022-12-19T13:44:14.089Z,2.900
2022-12-19T13:45:14.723Z,3.099
2022-12-19T13:46:13.982Z,3.200
2022-12-19T13:47:16.595Z,2.900
2022-12-19T13:48:14.811Z,3.200
2022-12-19T13:49:13.699Z,3
2022-12-19T13:50:14.017Z,2.799
2022-12-19T13:51:14.412Z,3
2022-12-19T13:52:14.773Z,3.099
2022-12-19T13:53:13.918Z,3
2022-12-19T13:54:14.397Z,2.900
2022-12-19T13:56:14.468Z,3.099
2022-12-19T13:57:14.883Z,3.400
2022-12-19T13:58:13.590Z,3
2022-12-19T14:01:20.971Z,3.099
2022-12-19T14:03:14.021Z,3.200
2022-12-19T14:04:14.529Z,3.099
2022-12-19T14:05:13.692Z,3.200
2022-12-19T14:06:18.304Z,3.5
2022-12-19T14:07:14.454Z,3.200
2022-12-19T14:08:14.037Z,3.900
2022-12-19T14:11:24.527Z,3.5
2022-12-19T14:11:37.566Z,5.300
2022-12-19T14:13:41.251Z,7
2022-12-19T14:13:48.835Z,5.599
2022-12-19T14:14:27.906Z,5.699
2022-12-19T14:15:14.802Z,4.599
2022-12-19T14:16:13.627Z,4.900
2022-12-19T14:17:14.557Z,5
2022-12-19T14:18:42.447Z,4.199
2022-12-19T14:19:14.624Z,4.300
2022-12-19T14:22:03.798Z,4.800
2022-12-19T14:22:27.236Z,4.900
2022-12-19T14:23:14.537Z,5.900
2022-12-19T14:24:14.448Z,5.699
2022-12-19T14:28:14.535Z,5.599
2022-12-19T14:28:19.655Z,5
2022-12-19T14:28:25.300Z,5.099
2022-12-19T14:28:28.222Z,4.599
2022-12-19T14:29:13.892Z,4.400
2022-12-19T14:30:29.984Z,4.099
2022-12-19T14:31:19.011Z,3.900
2022-12-19T14:33:44.377Z,3.799
2022-12-19T14:33:47.186Z,3.900
2022-12-19T14:35:13.119Z,3.700
2022-12-19T14:36:11.169Z,3.599
2022-12-19T14:38:03.858Z,4
2022-12-19T14:39:22.535Z,3.900
2022-12-19T14:39:24.039Z,3.599
2022-12-19T14:40:14.688Z,4
2022-12-19T14:42:14.147Z,4.5